Time;durP1;ratioP1;P1;durP2;ratioP2;P2;SDS_P1;SDS_P2;PMS_P1;PMS_P2;Temp;Humidity;BMP_temperature;BMP_pressure;BME280_temperature;BME280_humidity;BME280_pressure;Samples;Min_cycle;Max_cycle;Signal;HPM_P1;HPM_P2
2023/05/19 00:03:27;;;;;;;4.75;3.15;;;;;;;17.18;61.42;96984.97;10373653;28;20049;-26
2023/05/19 00:08:31;;;;;;;3.30;3.00;;;;;;;17.18;61.42;96974.00;10377122;28;20509;-26
2023/05/19 00:13:32;;;;;;;2.95;2.65;;;;;;;17.17;61.54;96974.84;10385993;28;20084;-25
2023/05/19 00:18:33;;;;;;;4.35;3.10;;;;;;;17.20;61.66;96979.91;10396007;28;20497;-26
2023/05/19 00:23:33;;;;;;;3.83;3.45;;;;;;;17.21;61.70;96977.41;10383157;28;20045;-26
2023/05/19 00:28:34;;;;;;;6.27;3.53;;;;;;;17.23;61.45;96973.22;10381762;28;20037;-26
2023/05/19 00:33:34;;;;;;;4.93;3.25;;;;;;;17.26;61.33;96969.84;10386968;28;20037;-25
2023/05/19 00:38:36;;;;;;;3.42;2.90;;;;;;;17.23;61.24;96972.38;10381350;28;20034;-25
2023/05/19 00:43:36;;;;;;;3.42;3.03;;;;;;;17.20;61.41;96964.72;10362756;28;20095;-26
2023/05/19 00:48:36;;;;;;;3.40;2.60;;;;;;;17.19;61.44;96963.03;10380075;28;20030;-26
2023/05/19 00:53:39;;;;;;;3.60;3.10;;;;;;;17.18;61.23;96962.22;10381070;28;20029;-26
2023/05/19 00:58:40;;;;;;;3.97;3.15;;;;;;;17.18;61.57;96956.28;10377534;28;20045;-26
2023/05/19 01:03:41;;;;;;;3.33;2.83;;;;;;;17.17;61.60;96954.59;10370978;28;20069;-26
2023/05/19 01:08:42;;;;;;;5.75;3.00;;;;;;;17.16;61.66;96952.91;10380323;28;20296;-26
2023/05/19 01:13:42;;;;;;;2.88;2.58;;;;;;;17.16;61.48;96942.78;10374337;28;20130;-26
2023/05/19 01:18:54;;;;;;;3.28;2.72;;;;;;;17.18;61.12;96941.97;10353858;28;20045;-26
2023/05/19 01:24:14;;;;;;;3.08;2.53;;;;;;;17.19;61.47;96937.75;10373029;28;20036;-26
2023/05/19 01:29:45;;;;;;;3.67;2.40;;;;;;;17.22;61.43;96936.09;10378010;28;20460;-26
2023/05/19 01:34:49;;;;;;;3.55;2.80;;;;;;;17.22;61.09;96932.69;10388200;28;20088;-25
2023/05/19 01:39:50;;;;;;;4.65;2.80;;;;;;;17.21;61.15;96929.34;10352867;28;20387;-26
2023/05/19 01:44:52;;;;;;;3.58;2.38;;;;;;;17.17;61.48;96925.06;10377894;28;20030;-26
2023/05/19 01:49:52;;;;;;;3.33;2.75;;;;;;;17.15;61.27;96918.34;10360511;28;20398;-26
2023/05/19 01:54:53;;;;;;;4.30;2.53;;;;;;;17.16;61.20;96925.09;10367264;28;20037;-26
2023/05/19 02:00:11;;;;;;;2.83;2.50;;;;;;;17.14;61.29;96924.22;10378331;28;20033;-26
2023/05/19 02:05:44;;;;;;;2.97;2.67;;;;;;;17.14;61.28;96929.28;10380820;28;20049;-26
2023/05/19 02:10:54;;;;;;;3.33;2.38;;;;;;;17.13;61.56;96925.03;10378472;28;20030;-29
2023/05/19 02:16:00;;;;;;;2.58;2.38;;;;;;;17.15;61.47;96936.03;10393932;28;20037;-28
2023/05/19 02:21:01;;;;;;;4.33;2.10;;;;;;;17.17;61.28;96939.41;10359467;28;20524;-29
2023/05/19 02:26:01;;;;;;;4.97;2.85;;;;;;;17.19;61.52;96937.75;10351061;28;20703;-30
2023/05/19 02:31:05;;;;;;;3.10;2.40;;;;;;;17.20;61.34;96944.50;10377591;28;20030;-29
2023/05/19 02:36:05;;;;;;;2.97;2.47;;;;;;;17.21;61.22;96941.13;10372880;28;20379;-29
2023/05/19 02:41:06;;;;;;;5.50;2.40;;;;;;;17.16;61.51;96933.50;10365901;28;20033;-28
2023/05/19 02:46:06;;;;;;;4.40;2.30;;;;;;;17.16;61.44;96937.72;10384970;28;20088;-29
2023/05/19 02:51:07;;;;;;;2.70;2.30;;;;;;;17.15;61.40;96925.91;10351856;28;20076;-29
2023/05/19 02:56:07;;;;;;;3.60;2.57;;;;;;;17.15;61.38;96923.38;10363915;28;20039;-30
2023/05/19 03:01:08;;;;;;;3.35;2.25;;;;;;;17.12;61.72;96920.81;10360600;28;20034;-29
2023/05/19 03:06:08;;;;;;;2.83;2.45;;;;;;;17.13;61.48;96920.84;10375429;28;20038;-28
2023/05/19 03:11:09;;;;;;;2.90;2.00;;;;;;;17.10;61.41;96909.84;10380347;28;20037;-29
2023/05/19 03:16:10;;;;;;;4.30;2.33;;;;;;;17.10;61.45;96908.19;10375367;28;20053;-29
2023/05/19 03:21:11;;;;;;;4.90;2.28;;;;;;;17.10;61.09;96903.13;10367711;28;20041;-29
2023/05/19 03:26:11;;;;;;;2.73;2.30;;;;;;;17.16;61.32;96907.38;10388624;28;20046;-29
2023/05/19 03:31:12;;;;;;;2.78;2.53;;;;;;;17.18;61.36;96908.22;10388770;28;20573;-29
2023/05/19 03:36:12;;;;;;;3.20;2.30;;;;;;;17.20;61.29;96914.13;10364719;28;20048;-29
2023/05/19 03:41:13;;;;;;;3.15;2.40;;;;;;;17.20;61.06;96921.72;10366226;28;20044;-29
2023/05/19 03:46:14;;;;;;;2.55;2.20;;;;;;;17.18;60.85;96918.34;10397340;28;20033;-29
2023/05/19 03:51:33;;;;;;;5.40;2.80;;;;;;;17.17;61.21;96916.66;10362069;28;20025;-29
2023/05/19 03:56:41;;;;;;;2.88;1.83;;;;;;;17.20;60.52;96920.06;10386711;28;20086;-28
2023/05/19 04:01:41;;;;;;;2.85;2.30;;;;;;;17.21;60.79;96915.81;10359264;28;20037;-29
2023/05/19 04:06:42;;;;;;;2.57;1.97;;;;;;;17.26;60.42;96922.63;10370733;28;20124;-29
2023/05/19 04:11:42;;;;;;;2.90;1.98;;;;;;;17.28;60.59;96922.63;10381856;28;20044;-29
2023/05/19 04:16:43;;;;;;;5.40;2.83;;;;;;;17.27;60.97;96926.00;10377736;28;20112;-29
2023/05/19 04:21:43;;;;;;;2.97;2.33;;;;;;;17.27;61.07;96926.88;10400614;28;20038;-29
2023/05/19 04:26:45;;;;;;;4.93;2.20;;;;;;;17.26;61.48;96924.31;10382916;28;20030;-30
2023/05/19 04:31:46;;;;;;;2.72;2.13;;;;;;;17.28;61.94;96930.22;10354879;28;20486;-28
2023/05/19 04:36:47;;;;;;;6.82;3.75;;;;;;;17.28;61.33;96926.03;10363122;28;20091;-28
2023/05/19 04:41:48;;;;;;;4.70;2.58;;;;;;;17.31;61.19;96923.50;10382031;28;20533;-28
2023/05/19 04:46:48;;;;;;;6.20;2.77;;;;;;;17.25;60.31;96932.75;10387168;28;20052;-29
2023/05/19 04:51:51;;;;;;;7.40;2.50;;;;;;;17.11;59.40;96921.66;10370628;28;20079;-29
2023/05/19 04:56:54;;;;;;;8.23;2.60;;;;;;;17.12;59.44;96926.72;10371892;28;20040;-28
2023/05/19 05:01:55;;;;;;;5.53;2.30;;;;;;;17.20;60.35;96924.25;10370716;28;20033;-29
2023/05/19 05:06:57;;;;;;;5.35;3.42;;;;;;;17.23;60.29;96927.66;10369364;28;20062;-29
2023/05/19 05:12:00;;;;;;;4.90;2.38;;;;;;;17.27;60.28;96923.47;10353226;28;20036;-29
2023/05/19 05:17:01;;;;;;;6.25;2.88;;;;;;;17.28;60.57;96922.63;10370218;28;20032;-29
2023/05/19 05:22:03;;;;;;;6.18;2.78;;;;;;;17.28;60.32;96920.09;10372765;28;20029;-29
2023/05/19 05:27:04;;;;;;;9.25;2.67;;;;;;;17.28;59.79;96926.03;10377740;28;20437;-27
2023/05/19 05:32:08;;;;;;;7.85;2.88;;;;;;;17.22;58.42;96925.97;10370780;28;20026;-29
2023/05/19 05:37:10;;;;;;;7.25;2.45;;;;;;;17.19;58.23;96920.03;10361661;28;20048;-28
2023/05/19 05:42:11;;;;;;;4.38;2.30;;;;;;;17.25;60.01;96923.44;10383223;28;20464;-29
2023/05/19 05:47:14;;;;;;;3.83;2.25;;;;;;;17.22;59.40;96928.50;10378936;28;20037;-28
2023/05/19 05:52:17;;;;;;;10.48;3.25;;;;;;;17.27;59.40;96926.00;10361066;28;20034;-29
2023/05/19 05:57:21;;;;;;;5.50;3.15;;;;;;;17.27;59.87;96931.06;10366675;28;20037;-29
2023/05/19 06:02:23;;;;;;;4.80;2.45;;;;;;;17.27;60.07;96920.94;10370006;28;20398;-28
2023/05/19 06:07:24;;;;;;;6.90;2.30;;;;;;;17.27;60.39;96915.88;10357340;28;20033;-28
2023/05/19 06:12:26;;;;;;;6.72;2.50;;;;;;;17.26;60.12;96912.50;10375943;28;20030;-28
2023/05/19 06:17:26;;;;;;;5.10;2.78;;;;;;;17.27;60.36;96915.88;10359849;28;20044;-28
2023/05/19 06:22:27;;;;;;;4.63;2.53;;;;;;;17.27;60.47;96915.88;10370866;28;20044;-28
2023/05/19 06:27:28;;;;;;;3.90;2.47;;;;;;;17.24;60.50;96910.81;10382106;23;20322;-29
2023/05/19 06:32:31;;;;;;;4.18;2.75;;;;;;;17.24;61.13;96914.16;10496035;28;20416;-28
2023/05/19 06:37:32;;;;;;;3.90;2.30;;;;;;;17.26;60.98;96909.13;10488041;28;20123;-29
2023/05/19 06:42:33;;;;;;;4.17;3.00;;;;;;;17.28;60.44;96907.44;10458628;28;20025;-28
2023/05/19 06:47:47;;;;;;;2.85;2.15;;;;;;;17.27;60.51;96908.28;10464559;28;20307;-29
2023/05/19 06:52:49;;;;;;;3.78;1.90;;;;;;;17.27;60.38;96903.22;10455755;28;20029;-28
2023/05/19 06:57:50;;;;;;;4.05;2.42;;;;;;;17.25;59.60;96912.50;10479756;28;20408;-28
2023/05/19 07:02:53;;;;;;;6.13;2.65;;;;;;;17.23;60.69;96899.00;10482447;23;20666;-29
2023/05/19 07:07:53;;;;;;;3.25;2.28;;;;;;;17.28;60.28;96904.91;10491457;28;20063;-29
2023/05/19 07:12:58;;;;;;;4.68;1.83;;;;;;;17.32;59.83;96904.97;10474793;28;20028;-30
2023/05/19 07:18:02;;;;;;;4.93;2.28;;;;;;;17.31;60.19;96892.31;10446007;28;20029;-29
2023/05/19 07:23:04;;;;;;;3.08;2.20;;;;;;;17.31;60.09;96895.69;10443351;28;20033;-29
2023/05/19 07:28:04;;;;;;;3.83;2.05;;;;;;;17.31;60.24;96893.16;10447361;28;20523;-29
2023/05/19 07:33:05;;;;;;;5.60;3.22;;;;;;;17.32;60.60;96881.34;10481587;28;20033;-29
2023/05/19 07:43:14;;;;;;;18.50;4.47;;;;;;;17.33;61.35;96862.81;10363472;28;20573;-30
2023/05/19 07:48:17;;;;;;;15.60;4.00;;;;;;;17.33;60.48;96865.31;10343247;28;20080;-30
2023/05/19 07:53:18;;;;;;;18.40;3.60;;;;;;;17.29;61.28;96858.53;10325794;28;20038;-30
2023/05/19 07:58:19;;;;;;;7.10;2.90;;;;;;;17.29;60.89;96853.47;10325896;28;20034;-30
2023/05/19 08:03:21;;;;;;;7.20;2.97;;;;;;;17.23;60.03;96859.34;10326882;28;20108;-30
2023/05/19 08:08:22;;;;;;;8.68;2.85;;;;;;;17.27;59.41;96850.09;10325757;28;20510;-30
2023/05/19 08:13:24;;;;;;;17.47;3.53;;;;;;;17.23;60.48;96848.41;10325515;28;20022;-30
2023/05/19 08:18:25;;;;;;;10.00;2.05;;;;;;;17.27;58.46;96835.78;10325251;28;20453;-30
2023/05/19 08:23:26;;;;;;;8.43;2.63;;;;;;;17.26;59.36;96838.28;10326351;28;20042;-30
2023/05/19 08:28:26;;;;;;;15.93;3.30;;;;;;;17.24;60.54;96839.97;10328246;28;20323;-30
2023/05/19 08:33:27;;;;;;;14.13;2.90;;;;;;;17.31;60.63;96847.59;10324666;28;20297;-30
2023/05/19 08:38:27;;;;;;;20.73;3.17;;;;;;;17.26;62.14;96849.22;10333629;28;20289;-30
2023/05/19 08:43:28;;;;;;;12.13;3.60;;;;;;;17.27;62.03;96839.97;10373157;28;20036;-30
2023/05/19 08:48:32;;;;;;;6.75;2.60;;;;;;;17.28;61.44;96846.72;10373610;28;20131;-30
2023/05/19 08:53:38;;;;;;;8.48;2.58;;;;;;;17.29;60.59;96840.81;10371550;28;20021;-30
2023/05/19 08:58:41;;;;;;;11.02;2.80;;;;;;;17.29;60.50;96840.81;10372148;28;20041;-30
2023/05/19 09:03:45;;;;;;;7.25;3.17;;;;;;;17.30;60.11;96835.78;10371995;28;20576;-30
2023/05/19 09:08:47;;;;;;;7.68;2.55;;;;;;;17.29;60.04;96845.88;10372828;28;20041;-30
2023/05/19 09:14:04;;;;;;;11.27;2.58;;;;;;;17.29;60.41;96838.28;10502165;23;20568;-28
2023/05/19 09:19:07;;;;;;;4.47;1.92;;;;;;;17.28;60.17;96836.59;10478157;28;20120;-28
2023/05/19 09:24:08;;;;;;;9.10;2.20;;;;;;;17.30;60.69;96835.78;10474202;28;20086;-28
2023/05/19 09:29:12;;;;;;;5.03;2.00;;;;;;;17.28;60.27;96827.34;10453881;28;20091;-28
2023/05/19 09:34:13;;;;;;;4.90;2.22;;;;;;;17.31;60.29;96831.59;10454460;28;20031;-28
2023/05/19 09:39:14;;;;;;;10.25;2.80;;;;;;;17.28;61.13;96832.41;10458251;28;20028;-28
2023/05/19 09:44:28;;;;;;;5.97;2.92;;;;;;;17.27;61.47;96825.66;10461170;28;20412;-27
2023/05/19 09:49:29;;;;;;;7.05;2.55;;;;;;;17.30;60.75;96829.88;10469442;28;20036;-27
2023/05/19 09:54:31;;;;;;;3.80;2.28;;;;;;;17.33;60.30;96825.66;10453030;28;20032;-27
2023/05/19 09:59:32;;;;;;;7.30;2.40;;;;;;;17.33;60.03;96830.72;10452274;28;20048;-28
2023/05/19 10:04:33;;;;;;;4.43;3.15;;;;;;;17.34;60.19;96829.06;10453005;28;20043;-28
2023/05/19 10:09:36;;;;;;;7.40;2.92;;;;;;;17.33;60.12;96824.84;10454468;28;20526;-27
2023/05/19 10:14:37;;;;;;;5.43;3.00;;;;;;;17.32;60.20;96823.97;10456994;28;20029;-28
2023/05/19 10:19:39;;;;;;;6.72;2.53;;;;;;;17.31;60.26;96824.81;10452159;28;20029;-27
2023/05/19 10:24:39;;;;;;;5.30;2.80;;;;;;;17.30;60.11;96822.28;10454160;28;20435;-28
2023/05/19 10:29:46;;;;;;;6.18;2.08;;;;;;;17.33;60.16;96827.38;10456416;28;20067;-28
2023/05/19 10:35:08;;;;;;;6.40;2.90;;;;;;;17.32;60.46;96828.22;10451771;28;20039;-27
2023/05/19 10:40:23;;;;;;;4.03;2.53;;;;;;;17.33;60.67;96832.44;10457842;28;20485;-28
2023/05/19 10:45:26;;;;;;;4.70;2.70;;;;;;;17.28;60.99;96821.44;10449886;28;20076;-28
2023/05/19 10:50:35;;;;;;;6.47;2.30;;;;;;;17.27;61.16;96813.00;10472212;28;20071;-28
2023/05/19 10:55:54;;;;;;;5.15;2.70;;;;;;;17.31;60.33;96816.41;10461418;28;20618;-28
2023/05/19 11:01:00;;;;;;;4.65;2.20;;;;;;;17.29;60.06;96815.53;10450262;28;20492;-28
2023/05/19 11:06:18;;;;;;;4.45;2.63;;;;;;;17.32;60.03;96821.44;10452222;28;20037;-28
2023/05/19 11:11:19;;;;;;;4.85;2.33;;;;;;;17.31;60.16;96822.28;10461271;28;20029;-27
2023/05/19 11:16:47;;;;;;;4.72;2.85;;;;;;;17.32;60.01;96823.16;10463790;28;20035;-28
2023/05/19 11:21:54;;;;;;;11.35;2.95;;;;;;;17.30;60.30;96824.81;10473270;28;20235;-28
2023/05/19 11:26:54;;;;;;;5.90;2.15;;;;;;;17.32;59.58;96821.44;10458788;28;20048;-28
2023/05/19 11:31:54;;;;;;;9.87;3.87;;;;;;;17.32;59.68;96823.16;10452729;28;20512;-28
2023/05/19 11:36:56;;;;;;;13.32;3.85;;;;;;;17.32;59.91;96820.63;10455270;28;20036;-29
2023/05/19 11:41:56;;;;;;;7.95;3.30;;;;;;;17.31;60.08;96819.75;10457167;28;20404;-27
2023/05/19 11:46:58;;;;;;;15.98;5.05;;;;;;;17.30;60.94;96827.34;10449339;28;20049;-27
2023/05/19 11:52:01;;;;;;;21.85;5.60;;;;;;;17.31;61.51;96811.34;10450028;28;20485;-28
2023/05/19 11:57:02;;;;;;;7.20;4.70;;;;;;;17.31;61.42;96816.41;10454672;28;20031;-28
2023/05/19 12:02:16;;;;;;;14.68;4.45;;;;;;;17.30;60.78;96814.69;10467707;28;20028;-28
2023/05/19 12:07:18;;;;;;;8.52;3.47;;;;;;;17.31;57.88;96804.56;10456774;28;20548;-28
2023/05/19 12:12:20;;;;;;;9.30;3.50;;;;;;;17.27;59.26;96796.97;10457351;28;20477;-28
2023/05/19 12:17:22;;;;;;;9.80;3.63;;;;;;;17.33;59.92;96814.72;10456312;28;20044;-28
2023/05/19 12:22:23;;;;;;;8.80;4.50;;;;;;;17.31;60.42;96816.41;10462911;28;20035;-28
2023/05/19 12:27:25;;;;;;;7.13;3.30;;;;;;;17.27;60.30;96810.47;10456862;28;20119;-28
2023/05/19 12:32:27;;;;;;;9.10;3.33;;;;;;;17.29;59.95;96810.47;10458061;28;20029;-28
2023/05/19 12:37:28;;;;;;;9.55;3.20;;;;;;;17.29;60.36;96815.53;10459485;28;20040;-28
2023/05/19 12:42:30;;;;;;;15.27;4.75;;;;;;;17.28;60.55;96816.38;10456488;28;20033;-27
2023/05/19 12:47:32;;;;;;;8.43;3.40;;;;;;;17.26;60.61;96807.91;10456147;28;20489;-28
2023/05/19 12:52:45;;;;;;;6.68;3.35;;;;;;;17.23;60.80;96797.78;10458058;28;20508;-28
2023/05/19 12:57:51;;;;;;;8.85;3.40;;;;;;;17.28;60.72;96806.25;10456296;28;20032;-28
2023/05/19 13:03:00;;;;;;;7.45;2.85;;;;;;;17.22;60.43;96796.06;10454981;28;20087;-28
2023/05/19 13:08:05;;;;;;;9.35;4.15;;;;;;;17.27;60.56;96805.41;10458307;28;20098;-28
2023/05/19 13:13:06;;;;;;;7.15;2.88;;;;;;;17.27;60.84;96804.56;10455438;28;20032;-28
2023/05/19 13:18:09;;;;;;;6.50;2.97;;;;;;;17.23;60.74;96797.78;10454141;28;20059;-28
2023/05/19 13:23:10;;;;;;;7.25;3.03;;;;;;;17.27;60.94;96795.28;10454884;28;20029;-27
2023/05/19 13:28:11;;;;;;;3.97;2.38;;;;;;;17.23;60.51;96782.63;10455014;28;20068;-28
2023/05/19 13:33:11;;;;;;;5.93;3.35;;;;;;;17.27;60.62;96789.38;10454320;28;20029;-28
2023/05/19 13:38:11;;;;;;;6.30;2.60;;;;;;;17.27;60.88;96790.22;10462259;28;20024;-28
2023/05/19 13:43:12;;;;;;;5.07;2.60;;;;;;;17.28;60.52;96791.06;10453841;28;20811;-28
2023/05/19 13:48:12;;;;;;;4.30;2.90;;;;;;;17.27;60.77;96779.25;10453310;28;20564;-28
2023/05/19 13:53:12;;;;;;;5.40;2.93;;;;;;;17.29;60.85;96787.69;10471662;28;20040;-28
2023/05/19 13:58:15;;;;;;;6.63;2.73;;;;;;;17.25;60.93;96786.00;10465665;28;20081;-28
2023/05/19 14:03:18;;;;;;;6.03;3.30;;;;;;;17.29;60.87;96795.28;10459575;28;20374;-28
2023/05/19 14:08:18;;;;;;;6.22;2.70;;;;;;;17.27;60.69;96794.44;10474171;28;20036;-28
2023/05/19 14:13:19;;;;;;;16.13;4.00;;;;;;;17.32;61.06;96797.84;10460798;28;20392;-28
2023/05/19 14:18:20;;;;;;;7.25;3.65;;;;;;;17.34;59.78;96801.22;10458504;28;20062;-28
2023/05/19 14:23:20;;;;;;;3.20;2.08;;;;;;;17.24;59.45;96789.38;10466822;28;20044;-28
2023/05/19 14:28:20;;;;;;;9.82;4.32;;;;;;;17.31;60.97;96798.69;10459778;28;20520;-27
2023/05/19 14:33:21;;;;;;;8.38;2.47;;;;;;;17.31;59.91;96796.97;10457992;28;20125;-28
2023/05/19 14:38:21;;;;;;;9.90;3.85;;;;;;;17.32;61.36;96797.84;10463683;28;20041;-28
2023/05/19 14:43:22;;;;;;;8.40;4.07;;;;;;;17.30;60.94;96799.50;10455325;28;20041;-28
2023/05/19 14:48:22;;;;;;;10.10;3.93;;;;;;;17.29;61.14;96801.19;10450627;28;20432;-29
2023/05/19 14:53:22;;;;;;;20.43;4.50;;;;;;;17.30;61.99;96804.56;10456404;28;20029;-27
2023/05/19 14:58:23;;;;;;;14.03;4.10;;;;;;;17.29;62.08;96798.66;10451042;28;20492;-28
2023/05/19 15:03:23;;;;;;;12.20;3.80;;;;;;;17.30;61.95;96809.63;10453721;28;20136;-28
2023/05/19 15:08:24;;;;;;;4.72;2.50;;;;;;;17.29;59.89;96813.00;10450187;28;20029;-27
2023/05/19 15:13:25;;;;;;;9.27;3.60;;;;;;;17.30;61.12;96814.69;10465204;28;20045;-28
2023/05/19 15:18:25;;;;;;;10.38;3.10;;;;;;;17.28;60.72;96809.63;10457539;28;20041;-27
2023/05/19 15:23:25;;;;;;;12.83;3.40;;;;;;;17.06;58.66;96784.19;10455075;28;20052;-28
2023/05/19 15:28:26;;;;;;;11.90;3.80;;;;;;;17.27;60.53;96809.63;10455054;28;20370;-28
2023/05/19 15:33:26;;;;;;;8.17;3.70;;;;;;;17.27;61.16;96819.72;10449208;28;20041;-28
2023/05/19 15:38:26;;;;;;;6.80;3.03;;;;;;;17.27;60.91;96819.72;10455712;28;20398;-28
2023/05/19 15:43:27;;;;;;;7.73;3.70;;;;;;;17.27;60.81;96829.84;10449838;28;20029;-28
2023/05/19 15:48:27;;;;;;;4.37;2.60;;;;;;;17.26;60.29;96826.47;10450298;28;20044;-28
2023/05/19 15:53:28;;;;;;;5.80;2.95;;;;;;;17.26;60.56;96828.16;10449620;28;20032;-28
2023/05/19 15:58:28;;;;;;;6.32;3.22;;;;;;;17.24;60.96;96825.63;10451908;28;20128;-28
2023/05/19 16:03:29;;;;;;;7.53;3.43;;;;;;;17.25;60.26;96826.47;10452575;28;20389;-28
2023/05/19 16:08:29;;;;;;;8.05;3.17;;;;;;;17.27;60.57;96819.72;10448620;28;20095;-27
2023/05/19 16:13:32;;;;;;;5.18;2.83;;;;;;;17.27;60.23;96824.78;10454235;28;20052;-27
2023/05/19 16:18:32;;;;;;;4.55;2.42;;;;;;;17.26;60.46;96823.09;10448874;28;20129;-28
2023/05/19 16:23:33;;;;;;;6.50;3.43;;;;;;;17.18;60.56;96804.50;10472121;28;20047;-28
2023/05/19 16:28:33;;;;;;;8.97;3.23;;;;;;;17.26;60.86;96818.03;10465403;28;20056;-29
2023/05/19 16:33:33;;;;;;;7.90;3.30;;;;;;;17.27;60.70;96819.72;10467627;28;20313;-28
2023/05/19 16:38:34;;;;;;;4.33;2.87;;;;;;;17.24;60.62;96818.03;10466573;28;20044;-28
2023/05/19 16:43:34;;;;;;;4.78;2.38;;;;;;;17.20;59.20;96815.47;10473989;28;20793;-28
2023/05/19 16:48:35;;;;;;;5.82;3.15;;;;;;;17.24;60.26;96814.66;10474896;28;20512;-28
2023/05/19 16:53:35;;;;;;;6.37;2.60;;;;;;;17.26;60.63;96818.88;10491150;28;20417;-28
2023/05/19 16:58:35;;;;;;;19.07;4.23;;;;;;;17.28;61.55;96817.22;10483322;28;20298;-28
2023/05/19 17:03:36;;;;;;;8.53;2.90;;;;;;;17.25;58.73;96816.34;10459568;28;20036;-28
2023/05/19 17:08:36;;;;;;;8.77;2.97;;;;;;;17.27;60.94;96822.25;10452620;28;20279;-28
2023/05/19 17:13:36;;;;;;;7.90;3.27;;;;;;;17.26;60.65;96812.97;10457237;28;20392;-28
2023/05/19 17:18:37;;;;;;;8.63;2.67;;;;;;;17.08;60.91;96787.56;10460737;28;20035;-27
2023/05/19 17:23:37;;;;;;;5.87;3.07;;;;;;;17.21;60.86;96807.03;10454518;28;20298;-27
2023/05/19 17:28:37;;;;;;;8.87;2.60;;;;;;;17.24;60.60;96809.59;10457303;28;20501;-28
2023/05/19 17:33:38;;;;;;;11.27;3.33;;;;;;;17.24;60.36;96815.50;10460941;28;20095;-28
2023/05/19 17:38:39;;;;;;;4.95;2.53;;;;;;;17.22;60.90;96809.59;10462147;28;21145;-28
2023/05/19 17:43:40;;;;;;;3.75;2.78;;;;;;;17.23;60.67;96818.03;10454208;28;20525;-28
2023/05/19 17:48:40;;;;;;;4.85;2.65;;;;;;;17.22;60.22;96808.72;10456281;28;20236;-28
2023/05/19 17:53:41;;;;;;;4.80;2.40;;;;;;;17.16;60.66;96801.94;10453091;28;20515;-26
2023/05/19 17:58:43;;;;;;;7.28;2.72;;;;;;;17.21;62.27;96810.44;10455768;28;20806;-28
2023/05/19 18:03:47;;;;;;;4.05;2.30;;;;;;;17.23;61.92;96807.91;10453777;28;20037;-28
2023/05/19 18:08:50;;;;;;;3.78;2.22;;;;;;;17.25;61.51;96807.06;10453153;28;20056;-28
2023/05/19 18:13:50;;;;;;;5.72;2.95;;;;;;;17.22;61.05;96809.59;10452469;28;20040;-28
2023/05/19 18:18:51;;;;;;;6.70;2.55;;;;;;;17.22;61.22;96806.19;10459975;28;20040;-28
2023/05/19 18:23:51;;;;;;;4.80;2.67;;;;;;;17.22;60.82;96803.66;10451881;28;20044;-27
2023/05/19 18:28:51;;;;;;;4.27;2.40;;;;;;;17.21;59.98;96809.56;10455082;28;20041;-28
2023/05/19 18:33:52;;;;;;;3.03;2.20;;;;;;;17.21;60.41;96814.63;10452330;28;20753;-28
2023/05/19 18:38:53;;;;;;;2.30;2.10;;;;;;;17.21;60.50;96814.63;10451486;28;20445;-28
2023/05/19 18:43:54;;;;;;;4.85;2.25;;;;;;;17.20;60.44;96818.84;10451793;28;20037;-28
2023/05/19 18:48:54;;;;;;;2.63;2.20;;;;;;;17.20;60.30;96807.88;10459896;28;20048;-28
2023/05/19 18:53:54;;;;;;;2.90;2.17;;;;;;;17.20;60.14;96813.78;10451193;28;20175;-28
2023/05/19 18:58:56;;;;;;;3.73;2.00;;;;;;;17.20;61.97;96810.41;10451308;28;20119;-28
2023/05/19 19:03:56;;;;;;;2.72;2.33;;;;;;;17.21;61.62;96814.63;10450219;28;20037;-27
2023/05/19 19:08:56;;;;;;;2.97;2.23;;;;;;;17.23;61.72;96812.97;10456388;28;20481;-27
2023/05/19 19:13:57;;;;;;;3.87;2.13;;;;;;;17.22;61.23;96812.13;10453417;28;20294;-28
2023/05/19 19:18:57;;;;;;;3.10;2.13;;;;;;;17.20;61.29;96818.00;10453114;28;20424;-27
2023/05/19 19:23:58;;;;;;;2.30;2.10;;;;;;;17.21;61.24;96812.97;10456321;28;20412;-28
2023/05/19 19:28:58;;;;;;;2.70;2.20;;;;;;;17.22;61.62;96818.84;10450226;28;20040;-28
2023/05/19 19:34:02;;;;;;;2.20;2.00;;;;;;;17.22;61.17;96823.91;10451881;28;20280;-28
2023/05/19 19:39:02;;;;;;;3.65;2.00;;;;;;;17.20;61.27;96823.06;10455484;28;20405;-28
2023/05/19 19:44:03;;;;;;;2.57;2.07;;;;;;;17.22;60.74;96811.25;10450172;28;20041;-28
2023/05/19 19:49:03;;;;;;;3.03;1.75;;;;;;;17.23;60.95;96818.03;10452272;28;20029;-28
2023/05/19 19:54:04;;;;;;;5.18;2.05;;;;;;;17.19;60.80;96801.13;10449848;28;20162;-28
2023/05/19 19:59:04;;;;;;;3.00;1.95;;;;;;;17.21;61.18;96812.09;10452915;28;20408;-28
2023/05/19 20:04:05;;;;;;;2.70;2.07;;;;;;;17.21;61.69;96810.44;10451610;28;20021;-28
2023/05/19 20:09:05;;;;;;;3.40;1.70;;;;;;;17.22;61.68;96811.25;10449505;28;20036;-28
2023/05/19 20:14:06;;;;;;;1.95;1.73;;;;;;;17.24;61.10;96809.59;10460956;28;20021;-28
2023/05/19 20:19:06;;;;;;;3.67;1.90;;;;;;;17.24;61.20;96812.13;10456001;28;20036;-28
2023/05/19 20:24:06;;;;;;;2.73;2.10;;;;;;;17.24;61.16;96814.66;10457046;28;20115;-27
2023/05/19 20:29:09;;;;;;;2.20;2.00;;;;;;;17.22;61.26;96818.84;10466859;28;20116;-28
2023/05/19 20:34:09;;;;;;;3.50;1.85;;;;;;;17.22;61.09;96821.38;10464151;28;20279;-28
2023/05/19 20:39:10;;;;;;;3.50;2.10;;;;;;;17.22;60.64;96811.25;10476427;28;20093;-28
2023/05/19 20:44:10;;;;;;;6.40;2.53;;;;;;;17.23;61.35;96818.03;10469644;28;20349;-28
2023/05/19 20:49:11;;;;;;;4.83;2.23;;;;;;;17.15;60.97;96791.84;10454934;28;20288;-28
2023/05/19 20:54:11;;;;;;;4.33;2.30;;;;;;;17.23;61.00;96808.75;10468956;28;20028;-29
2023/05/19 20:59:11;;;;;;;3.03;1.83;;;;;;;17.22;61.12;96802.00;10479880;28;20032;-28
2023/05/19 21:04:12;;;;;;;6.90;2.60;;;;;;;17.23;61.92;96800.31;10454382;28;20035;-28
2023/05/19 21:09:13;;;;;;;5.15;2.40;;;;;;;17.24;61.98;96800.31;10460819;28;20797;-28
2023/05/19 21:14:13;;;;;;;3.17;2.38;;;;;;;17.25;61.51;96796.13;10451994;28;20032;-28
2023/05/19 21:19:14;;;;;;;5.80;3.13;;;;;;;17.23;61.56;96792.75;10453035;28;20037;-28
2023/05/19 21:24:14;;;;;;;4.28;2.05;;;;;;;17.23;61.30;96783.44;10453533;28;20203;-28
2023/05/19 21:29:15;;;;;;;6.38;2.88;;;;;;;17.19;61.56;96781.75;10453835;28;20074;-28
2023/05/19 21:34:15;;;;;;;11.03;2.43;;;;;;;17.22;61.26;96780.91;10457909;28;20032;-28
2023/05/19 21:39:15;;;;;;;3.53;2.17;;;;;;;17.23;61.62;96782.63;10453756;28;20037;-28
2023/05/19 21:44:16;;;;;;;4.80;2.50;;;;;;;17.23;61.45;96775.03;10458079;28;20071;-28
2023/05/19 21:49:16;;;;;;;7.97;3.10;;;;;;;17.22;61.77;96770.78;10455510;28;20032;-28
2023/05/19 21:54:17;;;;;;;3.43;2.20;;;;;;;17.22;61.37;96768.25;10453559;28;20036;-28
2023/05/19 21:59:18;;;;;;;7.10;2.60;;;;;;;17.21;61.52;96759.81;10457481;28;20434;-28
2023/05/19 22:04:19;;;;;;;3.38;2.42;;;;;;;17.21;61.79;96758.97;10455000;28;20036;-28
2023/05/19 22:09:20;;;;;;;5.85;2.38;;;;;;;17.21;62.04;96756.44;10452697;28;20028;-29
2023/05/19 22:14:20;;;;;;;2.90;2.17;;;;;;;17.20;61.98;96753.06;10461191;28;20089;-28
2023/05/19 22:19:21;;;;;;;4.77;2.27;;;;;;;17.23;61.80;96747.19;10466191;28;20094;-28
2023/05/19 22:24:21;;;;;;;3.33;2.37;;;;;;;17.22;61.72;96750.53;10456959;28;20033;-28
2023/05/19 22:29:21;;;;;;;4.07;2.20;;;;;;;17.18;61.32;96737.06;10455689;28;20115;-27
2023/05/19 22:34:22;;;;;;;6.27;2.40;;;;;;;17.23;61.43;96734.53;10459070;28;20044;-28
2023/05/19 22:39:22;;;;;;;4.17;2.33;;;;;;;17.23;60.99;96742.97;10450879;28;20040;-28
2023/05/19 22:44:22;;;;;;;2.60;1.87;;;;;;;17.27;60.75;96741.28;10451344;28;20400;-28
2023/05/19 22:49:23;;;;;;;3.27;2.13;;;;;;;17.27;60.57;96733.72;10451554;28;20307;-27
2023/05/19 22:54:23;;;;;;;3.23;2.30;;;;;;;17.26;60.77;96732.03;10452000;28;20295;-28
2023/05/19 22:59:24;;;;;;;3.27;1.70;;;;;;;17.27;60.88;96728.66;10454507;28;20324;-28
2023/05/19 23:04:24;;;;;;;2.10;1.90;;;;;;;17.30;60.86;96733.72;10451437;28;20124;-28
2023/05/19 23:09:26;;;;;;;3.83;2.22;;;;;;;17.27;61.51;96726.13;10451175;28;20036;-27
2023/05/19 23:14:26;;;;;;;3.67;2.08;;;;;;;17.28;61.20;96722.75;10454145;28;20116;-28
2023/05/19 23:19:27;;;;;;;2.30;1.80;;;;;;;17.28;61.08;96720.22;10452974;28;20043;-28
2023/05/19 23:24:28;;;;;;;4.95;2.70;;;;;;;17.31;60.44;96717.72;10451913;28;20295;-28
2023/05/19 23:29:28;;;;;;;4.77;2.17;;;;;;;17.31;60.45;96712.66;10453399;28;20488;-28